sensor_id;sensor_type;location;lat;lon;timestamp;P1;durP1;ratioP1;P2;durP2;ratioP2
81351;SDS011;70809;52.184;13.422;2024-03-25T00:00:21;3.55;;;2.03;;
81351;SDS011;70809;52.184;13.422;2024-03-25T00:01:22;3.08;;;1.48;;
81351;SDS011;70809;52.184;13.422;2024-03-25T00:02:23;2.67;;;1.52;;
81351;SDS011;70809;52.184;13.422;2024-03-25T00:03:25;5.10;;;1.85;;
81351;SDS011;70809;52.184;13.422;2024-03-25T00:04:25;3.25;;;1.50;;
81351;SDS011;70809;52.184;13.422;2024-03-25T00:05:26;3.15;;;1.58;;
81351;SDS011;70809;52.184;13.422;2024-03-25T00:06:27;3.33;;;1.95;;
81351;SDS011;70809;52.184;13.422;2024-03-25T00:07:28;5.20;;;1.60;;
81351;SDS011;70809;52.184;13.422;2024-03-25T00:08:28;3.78;;;1.75;;
81351;SDS011;70809;52.184;13.422;2024-03-25T00:09:29;2.65;;;1.63;;
81351;SDS011;70809;52.184;13.422;2024-03-25T00:10:30;2.80;;;1.85;;
81351;SDS011;70809;52.184;13.422;2024-03-25T00:11:30;5.10;;;1.85;;
81351;SDS011;70809;52.184;13.422;2024-03-25T00:12:31;2.58;;;1.52;;
81351;SDS011;70809;52.184;13.422;2024-03-25T00:13:32;3.13;;;1.63;;
81351;SDS011;70809;52.184;13.422;2024-03-25T00:14:32;3.22;;;1.95;;
81351;SDS011;70809;52.184;13.422;2024-03-25T00:15:33;5.10;;;1.85;;
81351;SDS011;70809;52.184;13.422;2024-03-25T00:16:34;3.03;;;1.60;;
81351;SDS011;70809;52.184;13.422;2024-03-25T00:17:35;3.25;;;1.55;;
81351;SDS011;70809;52.184;13.422;2024-03-25T00:18:37;4.65;;;1.55;;
81351;SDS011;70809;52.184;13.422;2024-03-25T00:19:37;3.90;;;2.15;;
81351;SDS011;70809;52.184;13.422;2024-03-25T00:20:38;1.95;;;1.55;;
81351;SDS011;70809;52.184;13.422;2024-03-25T00:21:39;2.22;;;1.42;;
81351;SDS011;70809;52.184;13.422;2024-03-25T00:22:40;0.93;;;0.75;;
81351;SDS011;70809;52.184;13.422;2024-03-25T00:23:40;3.28;;;0.73;;
81351;SDS011;70809;52.184;13.422;2024-03-25T00:24:41;2.53;;;1.00;;
81351;SDS011;70809;52.184;13.422;2024-03-25T00:25:42;4.03;;;0.80;;
81351;SDS011;70809;52.184;13.422;2024-03-25T00:26:43;0.47;;;0.45;;
81351;SDS011;70809;52.184;13.422;2024-03-25T00:27:43;2.13;;;0.80;;
81351;SDS011;70809;52.184;13.422;2024-03-25T00:28:44;3.20;;;1.20;;
81351;SDS011;70809;52.184;13.422;2024-03-25T00:29:45;2.35;;;1.05;;
81351;SDS011;70809;52.184;13.422;2024-03-25T00:30:45;1.33;;;0.70;;
81351;SDS011;70809;52.184;13.422;2024-03-25T00:31:46;1.05;;;0.82;;
81351;SDS011;70809;52.184;13.422;2024-03-25T00:32:47;0.77;;;0.57;;
81351;SDS011;70809;52.184;13.422;2024-03-25T00:33:49;1.73;;;0.65;;
81351;SDS011;70809;52.184;13.422;2024-03-25T00:34:49;2.97;;;0.73;;
81351;SDS011;70809;52.184;13.422;2024-03-25T00:35:50;0.68;;;0.52;;
81351;SDS011;70809;52.184;13.422;2024-03-25T00:36:51;0.75;;;0.43;;
81351;SDS011;70809;52.184;13.422;2024-03-25T00:37:52;1.25;;;0.68;;
81351;SDS011;70809;52.184;13.422;2024-03-25T00:38:52;0.60;;;0.43;;
81351;SDS011;70809;52.184;13.422;2024-03-25T00:39:53;1.42;;;0.60;;
81351;SDS011;70809;52.184;13.422;2024-03-25T00:40:54;1.05;;;0.60;;
81351;SDS011;70809;52.184;13.422;2024-03-25T00:41:54;1.38;;;0.70;;
81351;SDS011;70809;52.184;13.422;2024-03-25T00:42:55;1.65;;;0.57;;
81351;SDS011;70809;52.184;13.422;2024-03-25T00:43:56;0.60;;;0.40;;
81351;SDS011;70809;52.184;13.422;2024-03-25T00:44:57;0.63;;;0.50;;
81351;SDS011;70809;52.184;13.422;2024-03-25T00:45:57;0.65;;;0.50;;
81351;SDS011;70809;52.184;13.422;2024-03-25T00:46:58;1.17;;;0.70;;
81351;SDS011;70809;52.184;13.422;2024-03-25T00:47:59;1.23;;;0.60;;
81351;SDS011;70809;52.184;13.422;2024-03-25T00:49:01;1.13;;;0.68;;
81351;SDS011;70809;52.184;13.422;2024-03-25T00:50:01;2.38;;;0.70;;
81351;SDS011;70809;52.184;13.422;2024-03-25T00:51:02;1.40;;;0.82;;
81351;SDS011;70809;52.184;13.422;2024-03-25T00:52:03;1.42;;;0.55;;
81351;SDS011;70809;52.184;13.422;2024-03-25T00:53:04;0.63;;;0.30;;
81351;SDS011;70809;52.184;13.422;2024-03-25T00:54:05;0.88;;;0.60;;
81351;SDS011;70809;52.184;13.422;2024-03-25T00:55:06;0.75;;;0.50;;
81351;SDS011;70809;52.184;13.422;2024-03-25T00:56:07;1.00;;;0.63;;
81351;SDS011;70809;52.184;13.422;2024-03-25T00:57:08;1.05;;;0.60;;
81351;SDS011;70809;52.184;13.422;2024-03-25T00:58:08;1.35;;;0.50;;
81351;SDS011;70809;52.184;13.422;2024-03-25T00:59:09;1.98;;;0.75;;
81351;SDS011;70809;52.184;13.422;2024-03-25T01:00:10;1.70;;;0.52;;
81351;SDS011;70809;52.184;13.422;2024-03-25T01:01:11;0.80;;;0.50;;
81351;SDS011;70809;52.184;13.422;2024-03-25T01:02:12;0.85;;;0.70;;
81351;SDS011;70809;52.184;13.422;2024-03-25T01:03:13;1.23;;;0.60;;
81351;SDS011;70809;52.184;13.422;2024-03-25T01:04:15;1.85;;;0.80;;
81351;SDS011;70809;52.184;13.422;2024-03-25T01:05:15;1.60;;;0.75;;
81351;SDS011;70809;52.184;13.422;2024-03-25T01:06:16;2.00;;;0.80;;
81351;SDS011;70809;52.184;13.422;2024-03-25T01:07:17;1.27;;;0.70;;
81351;SDS011;70809;52.184;13.422;2024-03-25T01:08:18;1.27;;;0.85;;
81351;SDS011;70809;52.184;13.422;2024-03-25T01:09:18;1.65;;;0.80;;
81351;SDS011;70809;52.184;13.422;2024-03-25T01:10:19;1.88;;;1.10;;
81351;SDS011;70809;52.184;13.422;2024-03-25T01:11:20;1.27;;;0.80;;
81351;SDS011;70809;52.184;13.422;2024-03-25T01:12:20;1.50;;;0.73;;
81351;SDS011;70809;52.184;13.422;2024-03-25T01:13:21;1.15;;;0.80;;
81351;SDS011;70809;52.184;13.422;2024-03-25T01:14:22;2.30;;;1.10;;
81351;SDS011;70809;52.184;13.422;2024-03-25T01:15:22;1.23;;;0.80;;
81351;SDS011;70809;52.184;13.422;2024-03-25T01:16:23;2.20;;;1.10;;
81351;SDS011;70809;52.184;13.422;2024-03-25T01:17:24;1.20;;;0.93;;
81351;SDS011;70809;52.184;13.422;2024-03-25T01:18:24;2.92;;;1.25;;
81351;SDS011;70809;52.184;13.422;2024-03-25T01:19:26;1.23;;;0.70;;
81351;SDS011;70809;52.184;13.422;2024-03-25T01:20:27;2.63;;;1.25;;
81351;SDS011;70809;52.184;13.422;2024-03-25T01:21:28;2.83;;;1.38;;
81351;SDS011;70809;52.184;13.422;2024-03-25T01:22:28;1.27;;;0.90;;
81351;SDS011;70809;52.184;13.422;2024-03-25T01:23:29;3.30;;;1.73;;
81351;SDS011;70809;52.184;13.422;2024-03-25T01:24:30;3.20;;;1.30;;
81351;SDS011;70809;52.184;13.422;2024-03-25T01:25:30;2.35;;;1.40;;
81351;SDS011;70809;52.184;13.422;2024-03-25T01:26:31;3.20;;;1.45;;
81351;SDS011;70809;52.184;13.422;2024-03-25T01:27:32;2.50;;;1.10;;
81351;SDS011;70809;52.184;13.422;2024-03-25T01:28:32;5.20;;;1.75;;
81351;SDS011;70809;52.184;13.422;2024-03-25T01:29:33;2.80;;;1.52;;
81351;SDS011;70809;52.184;13.422;2024-03-25T01:30:34;4.93;;;2.55;;
81351;SDS011;70809;52.184;13.422;2024-03-25T01:31:34;3.00;;;1.58;;
81351;SDS011;70809;52.184;13.422;2024-03-25T01:32:35;4.68;;;1.30;;
81351;SDS011;70809;52.184;13.422;2024-03-25T01:33:36;4.93;;;1.98;;
81351;SDS011;70809;52.184;13.422;2024-03-25T01:34:37;5.55;;;1.48;;
81351;SDS011;70809;52.184;13.422;2024-03-25T01:35:38;2.83;;;1.55;;
81351;SDS011;70809;52.184;13.422;2024-03-25T01:36:39;4.22;;;1.70;;
81351;SDS011;70809;52.184;13.422;2024-03-25T01:37:39;4.82;;;2.03;;
81351;SDS011;70809;52.184;13.422;2024-03-25T01:38:40;4.22;;;1.77;;
81351;SDS011;70809;52.184;13.422;2024-03-25T01:39:41;4.10;;;1.85;;
81351;SDS011;70809;52.184;13.422;2024-03-25T01:40:41;2.95;;;1.60;;
81351;SDS011;70809;52.184;13.422;2024-03-25T01:41:42;3.65;;;1.73;;
81351;SDS011;70809;52.184;13.422;2024-03-25T01:42:43;3.45;;;1.70;;
81351;SDS011;70809;52.184;13.422;2024-03-25T01:43:43;3.08;;;1.92;;
81351;SDS011;70809;52.184;13.422;2024-03-25T01:44:44;4.90;;;2.15;;
81351;SDS011;70809;52.184;13.422;2024-03-25T01:45:45;4.82;;;1.80;;
81351;SDS011;70809;52.184;13.422;2024-03-25T01:46:45;4.20;;;2.28;;
81351;SDS011;70809;52.184;13.422;2024-03-25T01:47:46;3.65;;;1.95;;
81351;SDS011;70809;52.184;13.422;2024-03-25T01:48:47;4.97;;;2.20;;
81351;SDS011;70809;52.184;13.422;2024-03-25T01:49:51;5.18;;;1.60;;
81351;SDS011;70809;52.184;13.422;2024-03-25T01:50:52;4.47;;;2.13;;
81351;SDS011;70809;52.184;13.422;2024-03-25T01:51:53;4.53;;;2.20;;
81351;SDS011;70809;52.184;13.422;2024-03-25T01:52:54;8.88;;;2.30;;
81351;SDS011;70809;52.184;13.422;2024-03-25T01:53:56;6.45;;;2.53;;
81351;SDS011;70809;52.184;13.422;2024-03-25T01:54:59;5.50;;;2.13;;
81351;SDS011;70809;52.184;13.422;2024-03-25T01:55:59;4.47;;;2.05;;
81351;SDS011;70809;52.184;13.422;2024-03-25T01:57:01;5.43;;;2.20;;
81351;SDS011;70809;52.184;13.422;2024-03-25T01:58:02;4.65;;;2.00;;
81351;SDS011;70809;52.184;13.422;2024-03-25T01:59:04;5.28;;;1.90;;
81351;SDS011;70809;52.184;13.422;2024-03-25T02:00:07;4.20;;;2.42;;
81351;SDS011;70809;52.184;13.422;2024-03-25T02:01:09;3.97;;;2.05;;
81351;SDS011;70809;52.184;13.422;2024-03-25T02:02:11;3.20;;;1.70;;
81351;SDS011;70809;52.184;13.422;2024-03-25T02:03:13;4.53;;;2.17;;
81351;SDS011;70809;52.184;13.422;2024-03-25T02:04:14;3.95;;;2.28;;
81351;SDS011;70809;52.184;13.422;2024-03-25T02:05:16;2.97;;;1.60;;
81351;SDS011;70809;52.184;13.422;2024-03-25T02:06:17;5.40;;;1.98;;
81351;SDS011;70809;52.184;13.422;2024-03-25T02:07:20;3.13;;;2.08;;
81351;SDS011;70809;52.184;13.422;2024-03-25T02:08:21;4.20;;;2.28;;
81351;SDS011;70809;52.184;13.422;2024-03-25T02:09:22;4.32;;;1.70;;
81351;SDS011;70809;52.184;13.422;2024-03-25T02:10:24;3.63;;;1.70;;
81351;SDS011;70809;52.184;13.422;2024-03-25T02:11:26;4.13;;;2.10;;
81351;SDS011;70809;52.184;13.422;2024-03-25T02:12:28;5.57;;;2.50;;
81351;SDS011;70809;52.184;13.422;2024-03-25T02:13:29;5.57;;;2.50;;
81351;SDS011;70809;52.184;13.422;2024-03-25T02:14:30;5.78;;;2.08;;
81351;SDS011;70809;52.184;13.422;2024-03-25T02:15:30;7.55;;;2.90;;
81351;SDS011;70809;52.184;13.422;2024-03-25T02:16:31;6.28;;;2.75;;
81351;SDS011;70809;52.184;13.422;2024-03-25T02:17:32;4.63;;;1.77;;
81351;SDS011;70809;52.184;13.422;2024-03-25T02:18:33;4.95;;;2.20;;
81351;SDS011;70809;52.184;13.422;2024-03-25T02:19:34;5.97;;;2.45;;
81351;SDS011;70809;52.184;13.422;2024-03-25T02:20:38;6.30;;;3.05;;
81351;SDS011;70809;52.184;13.422;2024-03-25T02:21:38;9.18;;;2.40;;
81351;SDS011;70809;52.184;13.422;2024-03-25T02:22:39;4.13;;;2.20;;
81351;SDS011;70809;52.184;13.422;2024-03-25T02:23:40;10.68;;;2.97;;
81351;SDS011;70809;52.184;13.422;2024-03-25T02:24:45;4.63;;;2.20;;
81351;SDS011;70809;52.184;13.422;2024-03-25T02:25:50;4.80;;;2.38;;
81351;SDS011;70809;52.184;13.422;2024-03-25T02:26:51;5.75;;;2.63;;
81351;SDS011;70809;52.184;13.422;2024-03-25T02:27:51;6.63;;;2.50;;
81351;SDS011;70809;52.184;13.422;2024-03-25T02:28:52;4.82;;;2.17;;
81351;SDS011;70809;52.184;13.422;2024-03-25T02:29:52;7.18;;;2.72;;
81351;SDS011;70809;52.184;13.422;2024-03-25T02:30:53;5.10;;;2.88;;
81351;SDS011;70809;52.184;13.422;2024-03-25T02:31:54;4.05;;;2.05;;
81351;SDS011;70809;52.184;13.422;2024-03-25T02:32:54;7.05;;;2.55;;
81351;SDS011;70809;52.184;13.422;2024-03-25T02:33:55;6.28;;;2.90;;
81351;SDS011;70809;52.184;13.422;2024-03-25T02:34:56;5.97;;;2.50;;
81351;SDS011;70809;52.184;13.422;2024-03-25T02:35:57;7.70;;;2.80;;
81351;SDS011;70809;52.184;13.422;2024-03-25T02:36:58;7.80;;;2.90;;
81351;SDS011;70809;52.184;13.422;2024-03-25T02:37:58;6.97;;;2.47;;
81351;SDS011;70809;52.184;13.422;2024-03-25T02:38:59;4.28;;;2.25;;
81351;SDS011;70809;52.184;13.422;2024-03-25T02:40:00;3.90;;;2.10;;
81351;SDS011;70809;52.184;13.422;2024-03-25T02:41:03;4.90;;;2.38;;
81351;SDS011;70809;52.184;13.422;2024-03-25T02:42:04;6.07;;;2.63;;
81351;SDS011;70809;52.184;13.422;2024-03-25T02:43:05;6.55;;;2.92;;
81351;SDS011;70809;52.184;13.422;2024-03-25T02:44:06;5.57;;;2.72;;
81351;SDS011;70809;52.184;13.422;2024-03-25T02:45:07;4.93;;;2.20;;
81351;SDS011;70809;52.184;13.422;2024-03-25T02:46:09;7.57;;;3.35;;
81351;SDS011;70809;52.184;13.422;2024-03-25T02:47:09;6.00;;;2.53;;
81351;SDS011;70809;52.184;13.422;2024-03-25T02:48:10;6.30;;;2.40;;
81351;SDS011;70809;52.184;13.422;2024-03-25T02:49:11;6.03;;;2.38;;
81351;SDS011;70809;52.184;13.422;2024-03-25T02:50:12;5.20;;;2.00;;
81351;SDS011;70809;52.184;13.422;2024-03-25T02:51:13;3.65;;;2.03;;
81351;SDS011;70809;52.184;13.422;2024-03-25T02:52:13;6.40;;;1.92;;
81351;SDS011;70809;52.184;13.422;2024-03-25T02:53:14;3.35;;;2.03;;
81351;SDS011;70809;52.184;13.422;2024-03-25T02:54:15;5.50;;;2.22;;
81351;SDS011;70809;52.184;13.422;2024-03-25T02:55:15;5.50;;;2.17;;
81351;SDS011;70809;52.184;13.422;2024-03-25T02:56:18;5.82;;;2.05;;
81351;SDS011;70809;52.184;13.422;2024-03-25T02:57:18;4.18;;;1.70;;
81351;SDS011;70809;52.184;13.422;2024-03-25T02:58:19;4.15;;;1.75;;
81351;SDS011;70809;52.184;13.422;2024-03-25T02:59:19;2.70;;;1.30;;
81351;SDS011;70809;52.184;13.422;2024-03-25T03:00:20;5.70;;;2.13;;
81351;SDS011;70809;52.184;13.422;2024-03-25T03:01:21;4.85;;;2.20;;
81351;SDS011;70809;52.184;13.422;2024-03-25T03:02:22;5.05;;;1.80;;
81351;SDS011;70809;52.184;13.422;2024-03-25T03:03:22;3.85;;;1.80;;
81351;SDS011;70809;52.184;13.422;2024-03-25T03:04:23;3.40;;;1.85;;
81351;SDS011;70809;52.184;13.422;2024-03-25T03:05:24;5.97;;;1.70;;
81351;SDS011;70809;52.184;13.422;2024-03-25T03:06:24;3.85;;;1.50;;
81351;SDS011;70809;52.184;13.422;2024-03-25T03:07:25;3.80;;;1.35;;
81351;SDS011;70809;52.184;13.422;2024-03-25T03:08:26;2.33;;;1.20;;
81351;SDS011;70809;52.184;13.422;2024-03-25T03:09:26;3.63;;;1.42;;
81351;SDS011;70809;52.184;13.422;2024-03-25T03:10:27;2.38;;;1.40;;
81351;SDS011;70809;52.184;13.422;2024-03-25T03:11:29;5.15;;;1.25;;
81351;SDS011;70809;52.184;13.422;2024-03-25T03:12:30;3.97;;;1.48;;
81351;SDS011;70809;52.184;13.422;2024-03-25T03:13:30;2.83;;;1.52;;
81351;SDS011;70809;52.184;13.422;2024-03-25T03:14:31;3.00;;;1.30;;
81351;SDS011;70809;52.184;13.422;2024-03-25T03:15:32;3.15;;;0.90;;
81351;SDS011;70809;52.184;13.422;2024-03-25T03:16:32;2.83;;;1.02;;
81351;SDS011;70809;52.184;13.422;2024-03-25T03:17:33;3.75;;;1.67;;
81351;SDS011;70809;52.184;13.422;2024-03-25T03:18:34;4.25;;;1.40;;
81351;SDS011;70809;52.184;13.422;2024-03-25T03:19:35;1.90;;;0.95;;
81351;SDS011;70809;52.184;13.422;2024-03-25T03:20:36;2.10;;;1.15;;
81351;SDS011;70809;52.184;13.422;2024-03-25T03:21:37;4.07;;;1.38;;
81351;SDS011;70809;52.184;13.422;2024-03-25T03:22:38;1.63;;;1.08;;
81351;SDS011;70809;52.184;13.422;2024-03-25T03:23:38;2.70;;;1.10;;
81351;SDS011;70809;52.184;13.422;2024-03-25T03:24:39;2.35;;;1.10;;
81351;SDS011;70809;52.184;13.422;2024-03-25T03:25:40;1.83;;;1.00;;
81351;SDS011;70809;52.184;13.422;2024-03-25T03:26:42;2.60;;;1.50;;
81351;SDS011;70809;52.184;13.422;2024-03-25T03:27:44;3.22;;;1.00;;
81351;SDS011;70809;52.184;13.422;2024-03-25T03:28:45;2.08;;;0.95;;
81351;SDS011;70809;52.184;13.422;2024-03-25T03:29:46;3.88;;;1.00;;
81351;SDS011;70809;52.184;13.422;2024-03-25T03:30:48;2.63;;;1.27;;
81351;SDS011;70809;52.184;13.422;2024-03-25T03:31:49;3.13;;;1.27;;
81351;SDS011;70809;52.184;13.422;2024-03-25T03:32:50;1.67;;;1.00;;
81351;SDS011;70809;52.184;13.422;2024-03-25T03:33:51;4.05;;;1.10;;
81351;SDS011;70809;52.184;13.422;2024-03-25T03:34:51;3.90;;;1.15;;
81351;SDS011;70809;52.184;13.422;2024-03-25T03:35:55;3.83;;;1.58;;
81351;SDS011;70809;52.184;13.422;2024-03-25T03:36:55;1.95;;;0.93;;
81351;SDS011;70809;52.184;13.422;2024-03-25T03:37:56;3.47;;;1.40;;
81351;SDS011;70809;52.184;13.422;2024-03-25T03:38:56;2.40;;;1.40;;
81351;SDS011;70809;52.184;13.422;2024-03-25T03:39:57;2.83;;;1.30;;
81351;SDS011;70809;52.184;13.422;2024-03-25T03:40:58;1.85;;;0.90;;
81351;SDS011;70809;52.184;13.422;2024-03-25T03:42:01;1.80;;;0.90;;
81351;SDS011;70809;52.184;13.422;2024-03-25T03:43:01;2.80;;;1.13;;
81351;SDS011;70809;52.184;13.422;2024-03-25T03:44:02;2.08;;;1.10;;
81351;SDS011;70809;52.184;13.422;2024-03-25T03:45:03;2.63;;;1.20;;
81351;SDS011;70809;52.184;13.422;2024-03-25T03:46:05;2.97;;;1.20;;
81351;SDS011;70809;52.184;13.422;2024-03-25T03:47:06;2.85;;;1.20;;
81351;SDS011;70809;52.184;13.422;2024-03-25T03:48:06;1.42;;;0.75;;
81351;SDS011;70809;52.184;13.422;2024-03-25T03:49:07;3.00;;;1.13;;
81351;SDS011;70809;52.184;13.422;2024-03-25T03:50:09;3.75;;;1.40;;
81351;SDS011;70809;52.184;13.422;2024-03-25T03:51:10;2.20;;;1.23;;
81351;SDS011;70809;52.184;13.422;2024-03-25T03:52:10;2.10;;;1.25;;
81351;SDS011;70809;52.184;13.422;2024-03-25T03:53:11;2.47;;;1.08;;
81351;SDS011;70809;52.184;13.422;2024-03-25T03:54:12;2.60;;;1.17;;
81351;SDS011;70809;52.184;13.422;2024-03-25T03:55:12;4.72;;;1.40;;
81351;SDS011;70809;52.184;13.422;2024-03-25T03:56:13;3.90;;;1.60;;
81351;SDS011;70809;52.184;13.422;2024-03-25T03:57:15;4.03;;;1.10;;
81351;SDS011;70809;52.184;13.422;2024-03-25T03:58:16;3.83;;;1.13;;
81351;SDS011;70809;52.184;13.422;2024-03-25T03:59:17;2.40;;;1.10;;
81351;SDS011;70809;52.184;13.422;2024-03-25T04:00:17;2.10;;;1.10;;
81351;SDS011;70809;52.184;13.422;2024-03-25T04:01:18;4.03;;;1.58;;
81351;SDS011;70809;52.184;13.422;2024-03-25T04:02:20;2.72;;;1.17;;
81351;SDS011;70809;52.184;13.422;2024-03-25T04:03:21;2.10;;;1.10;;
81351;SDS011;70809;52.184;13.422;2024-03-25T04:04:22;2.55;;;1.23;;
81351;SDS011;70809;52.184;13.422;2024-03-25T04:05:23;4.30;;;1.30;;
81351;SDS011;70809;52.184;13.422;2024-03-25T04:06:23;2.83;;;1.20;;
81351;SDS011;70809;52.184;13.422;2024-03-25T04:07:24;4.80;;;1.38;;
81351;SDS011;70809;52.184;13.422;2024-03-25T04:08:24;3.10;;;1.23;;
81351;SDS011;70809;52.184;13.422;2024-03-25T04:09:26;2.80;;;1.63;;
81351;SDS011;70809;52.184;13.422;2024-03-25T04:10:27;1.73;;;1.00;;
81351;SDS011;70809;52.184;13.422;2024-03-25T04:11:27;3.78;;;1.27;;
81351;SDS011;70809;52.184;13.422;2024-03-25T04:12:30;2.55;;;1.27;;
81351;SDS011;70809;52.184;13.422;2024-03-25T04:13:30;2.92;;;1.15;;
81351;SDS011;70809;52.184;13.422;2024-03-25T04:14:31;1.83;;;1.08;;
81351;SDS011;70809;52.184;13.422;2024-03-25T04:15:32;2.28;;;1.17;;
81351;SDS011;70809;52.184;13.422;2024-03-25T04:16:33;2.45;;;1.20;;
81351;SDS011;70809;52.184;13.422;2024-03-25T04:17:33;3.78;;;1.38;;
81351;SDS011;70809;52.184;13.422;2024-03-25T04:18:34;3.60;;;1.42;;
81351;SDS011;70809;52.184;13.422;2024-03-25T04:19:35;3.45;;;2.08;;
81351;SDS011;70809;52.184;13.422;2024-03-25T04:20:36;2.72;;;1.13;;
81351;SDS011;70809;52.184;13.422;2024-03-25T04:21:37;4.10;;;1.33;;
81351;SDS011;70809;52.184;13.422;2024-03-25T04:22:40;2.78;;;1.20;;
81351;SDS011;70809;52.184;13.422;2024-03-25T04:23:41;2.47;;;1.38;;
81351;SDS011;70809;52.184;13.422;2024-03-25T04:24:42;6.65;;;2.28;;
81351;SDS011;70809;52.184;13.422;2024-03-25T04:25:43;5.95;;;1.15;;
81351;SDS011;70809;52.184;13.422;2024-03-25T04:26:44;2.40;;;1.17;;
81351;SDS011;70809;52.184;13.422;2024-03-25T04:27:46;3.88;;;1.15;;
81351;SDS011;70809;52.184;13.422;2024-03-25T04:28:47;1.55;;;0.95;;
81351;SDS011;70809;52.184;13.422;2024-03-25T04:29:47;3.67;;;1.40;;
81351;SDS011;70809;52.184;13.422;2024-03-25T04:30:51;2.38;;;1.10;;
81351;SDS011;70809;52.184;13.422;2024-03-25T04:31:52;4.25;;;1.30;;
81351;SDS011;70809;52.184;13.422;2024-03-25T04:32:53;3.35;;;1.73;;
81351;SDS011;70809;52.184;13.422;2024-03-25T04:33:54;3.53;;;1.27;;
81351;SDS011;70809;52.184;13.422;2024-03-25T04:34:54;3.30;;;1.30;;
81351;SDS011;70809;52.184;13.422;2024-03-25T04:35:55;3.35;;;1.38;;
81351;SDS011;70809;52.184;13.422;2024-03-25T04:36:55;2.70;;;1.50;;
81351;SDS011;70809;52.184;13.422;2024-03-25T04:37:56;3.03;;;1.65;;
81351;SDS011;70809;52.184;13.422;2024-03-25T04:38:57;5.82;;;1.60;;
81351;SDS011;70809;52.184;13.422;2024-03-25T04:39:57;2.25;;;1.33;;
81351;SDS011;70809;52.184;13.422;2024-03-25T04:40:58;3.63;;;0.75;;
81351;SDS011;70809;52.184;13.422;2024-03-25T04:41:59;2.70;;;1.30;;
81351;SDS011;70809;52.184;13.422;2024-03-25T04:43:01;3.33;;;1.40;;
81351;SDS011;70809;52.184;13.422;2024-03-25T04:44:01;3.78;;;1.30;;
81351;SDS011;70809;52.184;13.422;2024-03-25T04:45:02;3.40;;;1.63;;
81351;SDS011;70809;52.184;13.422;2024-03-25T04:46:03;2.10;;;1.10;;
81351;SDS011;70809;52.184;13.422;2024-03-25T04:47:04;3.97;;;1.02;;
81351;SDS011;70809;52.184;13.422;2024-03-25T04:48:05;2.75;;;1.30;;
81351;SDS011;70809;52.184;13.422;2024-03-25T04:49:06;2.17;;;1.23;;
81351;SDS011;70809;52.184;13.422;2024-03-25T04:50:07;2.78;;;1.27;;
81351;SDS011;70809;52.184;13.422;2024-03-25T04:51:09;2.72;;;1.38;;
81351;SDS011;70809;52.184;13.422;2024-03-25T04:52:10;2.60;;;1.40;;
81351;SDS011;70809;52.184;13.422;2024-03-25T04:53:11;5.38;;;1.50;;
81351;SDS011;70809;52.184;13.422;2024-03-25T04:54:12;3.00;;;1.60;;
81351;SDS011;70809;52.184;13.422;2024-03-25T04:55:13;4.88;;;1.38;;
81351;SDS011;70809;52.184;13.422;2024-03-25T04:56:14;4.28;;;1.45;;
81351;SDS011;70809;52.184;13.422;2024-03-25T04:57:14;3.22;;;2.00;;
81351;SDS011;70809;52.184;13.422;2024-03-25T04:58:16;4.25;;;1.38;;
81351;SDS011;70809;52.184;13.422;2024-03-25T04:59:19;3.63;;;2.03;;
81351;SDS011;70809;52.184;13.422;2024-03-25T05:00:20;5.03;;;2.38;;
81351;SDS011;70809;52.184;13.422;2024-03-25T05:01:21;4.15;;;1.50;;
81351;SDS011;70809;52.184;13.422;2024-03-25T05:02:22;5.82;;;1.50;;
81351;SDS011;70809;52.184;13.422;2024-03-25T05:03:22;2.92;;;1.50;;
81351;SDS011;70809;52.184;13.422;2024-03-25T05:04:23;4.28;;;1.83;;
81351;SDS011;70809;52.184;13.422;2024-03-25T05:05:24;3.83;;;1.77;;
81351;SDS011;70809;52.184;13.422;2024-03-25T05:06:24;4.88;;;1.48;;
81351;SDS011;70809;52.184;13.422;2024-03-25T05:07:25;3.72;;;1.60;;
81351;SDS011;70809;52.184;13.422;2024-03-25T05:08:28;7.10;;;1.52;;
81351;SDS011;70809;52.184;13.422;2024-03-25T05:09:29;3.22;;;1.38;;
81351;SDS011;70809;52.184;13.422;2024-03-25T05:10:29;3.75;;;1.98;;
81351;SDS011;70809;52.184;13.422;2024-03-25T05:11:30;5.38;;;2.00;;
81351;SDS011;70809;52.184;13.422;2024-03-25T05:12:31;4.25;;;1.95;;
81351;SDS011;70809;52.184;13.422;2024-03-25T05:13:33;6.22;;;1.90;;
81351;SDS011;70809;52.184;13.422;2024-03-25T05:14:33;4.25;;;1.73;;
81351;SDS011;70809;52.184;13.422;2024-03-25T05:15:36;6.22;;;1.88;;
81351;SDS011;70809;52.184;13.422;2024-03-25T05:16:37;4.72;;;1.98;;
81351;SDS011;70809;52.184;13.422;2024-03-25T05:17:38;6.00;;;1.55;;
81351;SDS011;70809;52.184;13.422;2024-03-25T05:18:38;5.93;;;1.92;;
81351;SDS011;70809;52.184;13.422;2024-03-25T05:19:39;4.50;;;2.17;;
81351;SDS011;70809;52.184;13.422;2024-03-25T05:20:40;6.93;;;1.90;;
81351;SDS011;70809;52.184;13.422;2024-03-25T05:21:41;6.43;;;1.90;;
81351;SDS011;70809;52.184;13.422;2024-03-25T05:22:41;6.05;;;1.70;;
81351;SDS011;70809;52.184;13.422;2024-03-25T05:23:42;4.63;;;1.80;;
81351;SDS011;70809;52.184;13.422;2024-03-25T05:24:42;4.15;;;1.75;;
81351;SDS011;70809;52.184;13.422;2024-03-25T05:25:43;6.28;;;1.95;;
81351;SDS011;70809;52.184;13.422;2024-03-25T05:26:44;7.50;;;2.20;;
81351;SDS011;70809;52.184;13.422;2024-03-25T05:27:44;7.10;;;2.38;;
81351;SDS011;70809;52.184;13.422;2024-03-25T05:28:46;7.50;;;2.13;;
81351;SDS011;70809;52.184;13.422;2024-03-25T05:29:53;5.32;;;2.10;;
81351;SDS011;70809;52.184;13.422;2024-03-25T05:30:53;7.43;;;2.25;;
81351;SDS011;70809;52.184;13.422;2024-03-25T05:31:57;5.93;;;2.33;;
81351;SDS011;70809;52.184;13.422;2024-03-25T05:32:59;5.57;;;2.00;;
81351;SDS011;70809;52.184;13.422;2024-03-25T05:34:00;6.25;;;2.22;;
81351;SDS011;70809;52.184;13.422;2024-03-25T05:35:01;5.72;;;1.92;;
81351;SDS011;70809;52.184;13.422;2024-03-25T05:36:01;4.82;;;2.15;;
81351;SDS011;70809;52.184;13.422;2024-03-25T05:37:02;5.75;;;2.03;;
81351;SDS011;70809;52.184;13.422;2024-03-25T05:38:03;6.85;;;2.25;;
81351;SDS011;70809;52.184;13.422;2024-03-25T05:39:04;5.82;;;2.03;;
81351;SDS011;70809;52.184;13.422;2024-03-25T05:40:05;4.40;;;2.17;;
81351;SDS011;70809;52.184;13.422;2024-03-25T05:41:06;5.55;;;2.00;;
81351;SDS011;70809;52.184;13.422;2024-03-25T05:42:07;4.28;;;2.35;;
81351;SDS011;70809;52.184;13.422;2024-03-25T05:43:08;5.65;;;2.50;;
81351;SDS011;70809;52.184;13.422;2024-03-25T05:44:10;6.93;;;2.00;;
81351;SDS011;70809;52.184;13.422;2024-03-25T05:45:10;6.30;;;2.42;;
81351;SDS011;70809;52.184;13.422;2024-03-25T05:46:11;5.30;;;2.08;;
81351;SDS011;70809;52.184;13.422;2024-03-25T05:47:12;5.70;;;1.77;;
81351;SDS011;70809;52.184;13.422;2024-03-25T05:48:14;2.70;;;1.88;;
81351;SDS011;70809;52.184;13.422;2024-03-25T05:49:15;10.63;;;2.50;;
81351;SDS011;70809;52.184;13.422;2024-03-25T05:50:16;5.85;;;1.85;;
81351;SDS011;70809;52.184;13.422;2024-03-25T05:51:17;4.07;;;2.15;;
81351;SDS011;70809;52.184;13.422;2024-03-25T05:52:17;7.95;;;2.33;;
81351;SDS011;70809;52.184;13.422;2024-03-25T05:53:18;7.30;;;2.75;;
81351;SDS011;70809;52.184;13.422;2024-03-25T05:54:18;3.83;;;1.98;;
81351;SDS011;70809;52.184;13.422;2024-03-25T05:55:19;6.13;;;2.45;;
81351;SDS011;70809;52.184;13.422;2024-03-25T05:56:20;3.95;;;2.05;;
81351;SDS011;70809;52.184;13.422;2024-03-25T05:57:20;11.65;;;3.17;;
81351;SDS011;70809;52.184;13.422;2024-03-25T05:58:21;2.80;;;1.50;;
81351;SDS011;70809;52.184;13.422;2024-03-25T05:59:24;7.45;;;2.45;;
81351;SDS011;70809;52.184;13.422;2024-03-25T06:00:24;5.47;;;2.22;;
81351;SDS011;70809;52.184;13.422;2024-03-25T06:01:25;7.13;;;2.55;;